createdAt,value
2022-10-17T00:00:25.436Z,4.03
2022-10-17T00:01:27.678Z,3.97
2022-10-17T00:02:29.909Z,4.30
2022-10-17T00:03:34.083Z,4.35
2022-10-17T00:04:36.309Z,4.35
2022-10-17T00:05:46.903Z,4.13
2022-10-17T00:06:49.079Z,4.47
2022-10-17T00:07:52.189Z,4.07
2022-10-17T00:08:54.392Z,4.38
2022-10-17T00:09:56.638Z,4.22
2022-10-17T00:11:05.025Z,4.38
2022-10-17T00:12:07.249Z,4.40
2022-10-17T00:13:11.129Z,3.97
2022-10-17T00:14:13.391Z,3.90
2022-10-17T00:15:17.813Z,4.00
2022-10-17T00:16:39.334Z,4.20
2022-10-17T00:17:42.163Z,4.15
2022-10-17T00:18:44.338Z,4.43
2022-10-17T00:19:46.565Z,3.92
2022-10-17T00:20:51.014Z,4.18
2022-10-17T00:21:56.204Z,4.05
2022-10-17T00:22:58.478Z,3.95
2022-10-17T00:24:00.965Z,3.92
2022-10-17T00:25:04.024Z,4.00
2022-10-17T00:26:06.379Z,4.03
2022-10-17T00:27:08.813Z,4.00
2022-10-17T00:28:15.259Z,4.40
2022-10-17T00:29:17.439Z,4.05
2022-10-17T00:30:22.705Z,4.07
2022-10-17T00:31:25.235Z,4.13
2022-10-17T00:32:27.691Z,4.18
2022-10-17T00:33:31.255Z,4.20
2022-10-17T00:34:33.490Z,4.07
2022-10-17T00:35:35.690Z,4.10
2022-10-17T00:36:37.949Z,3.88
2022-10-17T00:37:40.145Z,4.07
2022-10-17T00:38:44.631Z,4.22
2022-10-17T00:39:46.920Z,3.70
2022-10-17T00:40:49.143Z,4.22
2022-10-17T00:41:51.352Z,4.05
2022-10-17T00:42:54.987Z,4.20
2022-10-17T00:44:00.861Z,4.53
2022-10-17T00:45:26.375Z,4.10
2022-10-17T00:46:31.367Z,4.10
2022-10-17T00:47:35.575Z,4.03
2022-10-17T00:48:37.789Z,3.92
2022-10-17T00:49:41.343Z,4.20
2022-10-17T00:50:48.805Z,4.45
2022-10-17T00:51:57.657Z,3.97
2022-10-17T00:53:05.690Z,4.57
2022-10-17T00:54:09.356Z,4.00
2022-10-17T00:55:25.489Z,4.18
2022-10-17T00:56:27.892Z,4.32
2022-10-17T00:57:32.491Z,4.30
2022-10-17T00:58:34.884Z,4.47
2022-10-17T00:59:42.511Z,3.90
2022-10-17T01:00:47.367Z,3.95
2022-10-17T01:02:09.907Z,3.88
2022-10-17T01:03:14.740Z,3.90
2022-10-17T01:04:18.539Z,4.00
2022-10-17T01:05:21.612Z,4.35
2022-10-17T01:06:23.893Z,4.00
2022-10-17T01:07:33.144Z,3.90
2022-10-17T01:08:39.039Z,4.20
2022-10-17T01:09:45.759Z,4.20
2022-10-17T01:11:24.897Z,4.07
2022-10-17T01:12:38.727Z,4.03
2022-10-17T01:14:05.412Z,4.20
2022-10-17T01:15:22.852Z,4.13
2022-10-17T01:16:43.740Z,4.10
2022-10-17T01:18:06.727Z,4.18
2022-10-17T01:19:46.124Z,4.47
2022-10-17T01:21:04.383Z,4.30
2022-10-17T01:22:32.935Z,4.40
2022-10-17T01:23:40.722Z,4.25
2022-10-17T01:24:54.965Z,4.22
2022-10-17T01:26:19.327Z,4.30
2022-10-17T01:27:35.188Z,4.40
2022-10-17T01:28:47.031Z,4.20
2022-10-17T01:30:26.962Z,4.90
2022-10-17T01:31:40.123Z,4.35
2022-10-17T01:32:53.639Z,4.43
2022-10-17T01:34:24.264Z,3.83
2022-10-17T01:35:34.292Z,4.25
2022-10-17T01:36:46.235Z,4.82
2022-10-17T01:39:36.982Z,4.65
2022-10-17T01:40:51.098Z,4.72
2022-10-17T01:42:16.063Z,5.22
2022-10-17T01:43:27.376Z,4.60
2022-10-17T01:45:05.158Z,5.30
2022-10-17T01:46:16.355Z,5.30
2022-10-17T01:47:23.336Z,4.80
2022-10-17T01:48:35.057Z,5.57
2022-10-17T01:49:42.136Z,5.53
2022-10-17T01:50:57.256Z,5.85
2022-10-17T01:52:06.583Z,6.10
2022-10-17T01:53:15.175Z,5.82
2022-10-17T01:54:41.620Z,5.82
2022-10-17T01:55:47.343Z,6.25
2022-10-17T01:56:55.372Z,5.70
2022-10-17T01:58:03.791Z,6.00
2022-10-17T01:59:17.408Z,7.05
2022-10-17T02:00:25.222Z,6.18
2022-10-17T02:01:30.980Z,6.68
2022-10-17T02:02:36.682Z,6.45
2022-10-17T02:03:41.894Z,6.35
2022-10-17T02:04:45.320Z,6.38
2022-10-17T02:05:48.243Z,6.85
2022-10-17T02:06:52.970Z,6.53
2022-10-17T02:07:55.272Z,6.43
2022-10-17T02:08:57.486Z,6.25
2022-10-17T02:09:59.769Z,6.38
2022-10-17T02:11:11.230Z,6.63
2022-10-17T02:12:30.257Z,6.28
2022-10-17T02:13:51.953Z,6.63
2022-10-17T02:15:32.036Z,6.38
2022-10-17T02:17:00.115Z,6.00
2022-10-17T02:18:03.575Z,6.20
2022-10-17T02:19:26.730Z,6.90
2022-10-17T02:20:40.942Z,6.80
2022-10-17T02:22:08.183Z,7.25
2022-10-17T02:23:33.818Z,7.88
2022-10-17T02:24:41.851Z,7.32
2022-10-17T02:26:10.196Z,7.50
2022-10-17T02:27:17.631Z,8.05
2022-10-17T02:28:39.292Z,7.80
2022-10-17T02:29:48.802Z,7.63
2022-10-17T02:31:01.527Z,8.07
2022-10-17T02:32:08.642Z,8.27
2022-10-17T02:33:15.200Z,7.90
2022-10-17T02:34:17.374Z,8.15
2022-10-17T02:35:24.650Z,7.93
2022-10-17T02:36:32.564Z,8.38
2022-10-17T02:37:36.440Z,7.60
2022-10-17T02:38:40.798Z,8.13
2022-10-17T02:39:44.675Z,8.23
2022-10-17T02:40:51.000Z,8.38
2022-10-17T02:41:56.845Z,8.38
2022-10-17T02:43:01.051Z,8.90
2022-10-17T02:44:06.669Z,8.73
2022-10-17T02:45:09.636Z,9.30
2022-10-17T02:46:21.211Z,9.13
2022-10-17T02:47:44.272Z,9.27
2022-10-17T02:48:53.388Z,9.38
2022-10-17T02:49:58.622Z,8.90
2022-10-17T02:51:09.832Z,9.35
2022-10-17T02:52:37.102Z,9.57
2022-10-17T02:53:58.356Z,9.40
2022-10-17T02:55:03.940Z,9.43
2022-10-17T02:56:21.384Z,9.38
2022-10-17T02:57:30.688Z,10.13
2022-10-17T02:58:35.771Z,10.35
2022-10-17T02:59:41.534Z,10.50
2022-10-17T03:00:43.957Z,10.18
2022-10-17T03:01:46.693Z,10.63
2022-10-17T03:02:51.252Z,10.85
2022-10-17T03:04:12.556Z,10.93
2022-10-17T03:05:26.749Z,11.40
2022-10-17T03:06:28.959Z,11.18
2022-10-17T03:07:31.218Z,11.70
2022-10-17T03:08:33.541Z,12.00
2022-10-17T03:09:36.015Z,11.23
2022-10-17T03:10:38.749Z,12.20
2022-10-17T03:11:41.570Z,12.02
2022-10-17T03:12:44.432Z,12.35
2022-10-17T03:13:47.534Z,12.57
2022-10-17T03:14:51.538Z,12.55
2022-10-17T03:15:53.718Z,11.85
2022-10-17T03:16:55.925Z,12.52
2022-10-17T03:17:58.343Z,13.18
2022-10-17T03:19:00.571Z,12.30
2022-10-17T03:20:04.230Z,12.57
2022-10-17T03:21:06.608Z,13.38
2022-10-17T03:22:09.305Z,12.98
2022-10-17T03:23:12.394Z,13.65
2022-10-17T03:24:15.709Z,12.27
2022-10-17T03:25:17.998Z,13.27
2022-10-17T03:26:23.483Z,13.80
2022-10-17T03:27:26.478Z,14.15
2022-10-17T03:28:28.973Z,13.82
2022-10-17T03:29:31.330Z,14.23
2022-10-17T03:30:33.928Z,14.95
2022-10-17T03:31:36.323Z,14.77
2022-10-17T03:32:39.383Z,14.13
2022-10-17T03:33:42.649Z,14.63
2022-10-17T03:34:44.990Z,15.30
2022-10-17T03:35:47.619Z,15.52
2022-10-17T03:36:49.886Z,13.80
2022-10-17T03:37:55.704Z,14.73
2022-10-17T03:38:58.885Z,14.68
2022-10-17T03:40:01.168Z,14.43
2022-10-17T03:41:05.635Z,15.10
2022-10-17T03:42:08.153Z,15.10
2022-10-17T03:43:11.984Z,14.73
2022-10-17T03:44:15.996Z,15.07
2022-10-17T03:45:18.314Z,15.70
2022-10-17T03:46:21.534Z,15.32
2022-10-17T03:47:23.886Z,14.75
2022-10-17T03:48:28.481Z,15.15
2022-10-17T03:49:30.712Z,15.65
2022-10-17T03:50:32.888Z,15.70
2022-10-17T03:51:36.134Z,15.40
2022-10-17T03:52:47.082Z,15.18
2022-10-17T03:53:49.316Z,15.60
2022-10-17T03:54:52.404Z,15.82
2022-10-17T03:55:54.684Z,16.23
2022-10-17T03:58:19.591Z,16.52
2022-10-17T03:59:21.816Z,17.30
2022-10-17T04:00:36.373Z,16.13
2022-10-17T04:01:38.885Z,16.35
2022-10-17T04:02:41.232Z,17.55
2022-10-17T04:03:54.952Z,17.15
2022-10-17T04:04:57.172Z,16.92
2022-10-17T04:06:03.990Z,16.15
2022-10-17T04:07:08.294Z,17.30
2022-10-17T04:08:13.699Z,17.25
2022-10-17T04:09:34.220Z,17.38
2022-10-17T04:10:42.608Z,17.25
2022-10-17T04:11:45.035Z,16.65
2022-10-17T04:12:48.020Z,17.95
2022-10-17T04:13:55.365Z,17.45
2022-10-17T04:14:58.813Z,17.55
2022-10-17T04:16:05.379Z,18.02
2022-10-17T04:17:07.895Z,18.33
2022-10-17T04:18:11.056Z,19.27
2022-10-17T04:19:15.044Z,18.92
2022-10-17T04:20:21.000Z,18.02
2022-10-17T04:21:25.015Z,18.05
2022-10-17T04:22:27.914Z,18.20
2022-10-17T04:23:30.806Z,18.50
2022-10-17T04:24:38.339Z,18.73
2022-10-17T04:25:44.090Z,19.25
2022-10-17T04:26:49.919Z,20.20
2022-10-17T04:27:52.393Z,20.08
2022-10-17T04:28:55.098Z,22.13
2022-10-17T04:29:57.335Z,21.63
2022-10-17T04:31:05.658Z,22.00
2022-10-17T04:32:13.700Z,22.33
2022-10-17T04:33:25.996Z,21.92
2022-10-17T04:34:28.229Z,22.15
2022-10-17T04:35:30.558Z,21.83
2022-10-17T04:36:37.772Z,20.80
2022-10-17T04:37:40.260Z,20.95
2022-10-17T04:38:48.401Z,20.50
2022-10-17T04:39:50.800Z,20.77
2022-10-17T04:40:53.029Z,20.35
2022-10-17T04:41:56.964Z,20.45
2022-10-17T04:42:59.210Z,19.73
2022-10-17T04:44:10.506Z,20.42
2022-10-17T04:45:16.420Z,19.58
2022-10-17T04:46:18.885Z,19.90
2022-10-17T04:47:21.959Z,19.95
2022-10-17T04:48:24.999Z,19.67
2022-10-17T04:49:27.408Z,20.35
2022-10-17T04:50:34.332Z,19.90
2022-10-17T04:51:55.782Z,20.58
2022-10-17T04:53:02.464Z,19.83
2022-10-17T04:54:05.658Z,19.77
2022-10-17T04:55:09.493Z,19.70
2022-10-17T04:56:15.517Z,20.33
2022-10-17T04:57:18.847Z,19.48
2022-10-17T04:58:34.332Z,20.10
2022-10-17T04:59:36.576Z,20.85
2022-10-17T05:00:56.982Z,19.23
2022-10-17T05:02:03.971Z,20.83
2022-10-17T05:03:06.820Z,21.25
2022-10-17T05:04:09.039Z,20.75
2022-10-17T05:05:11.256Z,21.35
2022-10-17T05:06:16.888Z,20.45
2022-10-17T05:07:22.993Z,21.50
2022-10-17T05:08:39.640Z,20.70
2022-10-17T05:09:42.084Z,20.70
2022-10-17T05:10:46.396Z,21.33
2022-10-17T05:11:49.268Z,21.25
2022-10-17T05:12:51.714Z,20.95
2022-10-17T05:13:59.864Z,21.10
2022-10-17T05:15:02.069Z,21.00
2022-10-17T05:16:04.874Z,22.00
2022-10-17T05:17:07.160Z,22.33
2022-10-17T05:18:10.042Z,21.65
2022-10-17T05:19:13.211Z,21.50
2022-10-17T05:20:20.535Z,22.25
2022-10-17T05:21:26.181Z,22.75
2022-10-17T05:22:31.593Z,22.85
2022-10-17T05:23:34.277Z,22.10
2022-10-17T05:24:36.774Z,22.75
2022-10-17T05:25:39.021Z,21.60
2022-10-17T05:26:41.352Z,22.50
2022-10-17T05:27:44.302Z,22.15
2022-10-17T05:28:47.856Z,22.67
2022-10-17T05:29:50.278Z,23.55
2022-10-17T05:31:05.273Z,21.98
2022-10-17T05:32:07.562Z,23.08
2022-10-17T05:33:10.782Z,22.52
2022-10-17T05:34:13.991Z,23.15
2022-10-17T05:35:17.503Z,22.33
2022-10-17T05:36:19.848Z,24.63
2022-10-17T05:37:23.030Z,23.25
2022-10-17T05:38:28.395Z,23.63
2022-10-17T05:39:31.075Z,24.40
2022-10-17T05:40:34.437Z,23.90
2022-10-17T05:41:38.166Z,23.15
2022-10-17T05:44:05.393Z,23.13
2022-10-17T05:45:20.746Z,23.23
2022-10-17T05:46:22.962Z,24.30
2022-10-17T05:47:25.208Z,24.70
2022-10-17T05:48:27.384Z,24.42
2022-10-17T05:49:45.085Z,24.58
2022-10-17T05:51:04.370Z,24.63
2022-10-17T05:52:06.909Z,24.83
2022-10-17T05:53:18.551Z,25.15
2022-10-17T05:54:24.352Z,24.73
2022-10-17T05:55:26.651Z,25.05
2022-10-17T05:56:28.910Z,24.67
2022-10-17T05:57:31.288Z,24.25
2022-10-17T05:58:52.377Z,24.20
2022-10-17T06:00:16.551Z,24.80
2022-10-17T06:01:25.068Z,25.23
2022-10-17T06:02:28.953Z,25.00
2022-10-17T06:03:32.696Z,25.13
2022-10-17T06:04:38.565Z,25.33
2022-10-17T06:05:41.766Z,24.77
2022-10-17T06:06:44.701Z,25.45
2022-10-17T06:07:50.286Z,25.15
2022-10-17T06:08:52.876Z,24.85
2022-10-17T06:10:00.843Z,25.67
2022-10-17T06:11:06.155Z,25.65
2022-10-17T06:12:11.716Z,24.58
2022-10-17T06:13:13.936Z,24.15
2022-10-17T06:14:16.304Z,25.25
2022-10-17T06:15:18.663Z,24.77
2022-10-17T06:16:26.279Z,25.83
2022-10-17T06:17:29.284Z,26.05
2022-10-17T06:18:32.234Z,25.45
2022-10-17T06:19:34.618Z,25.35
2022-10-17T06:20:40.560Z,26.40
2022-10-17T06:21:46.076Z,25.38
2022-10-17T06:22:51.577Z,26.00
2022-10-17T06:24:02.904Z,25.67
2022-10-17T06:25:11.168Z,26.55
2022-10-17T06:26:13.724Z,27.08
2022-10-17T06:27:16.196Z,26.60
2022-10-17T06:28:20.661Z,27.60
2022-10-17T06:29:22.943Z,26.95
2022-10-17T06:30:28.176Z,27.20
2022-10-17T06:31:30.585Z,26.75
2022-10-17T06:32:33.492Z,28.40
2022-10-17T06:33:36.163Z,27.15
2022-10-17T06:34:39.222Z,26.13
2022-10-17T06:35:41.548Z,27.95
2022-10-17T06:36:43.879Z,28.10
2022-10-17T06:37:47.444Z,28.38
2022-10-17T06:38:49.760Z,27.42
2022-10-17T06:39:57.700Z,26.77
2022-10-17T06:41:13.389Z,26.92
2022-10-17T06:42:15.594Z,26.77
2022-10-17T06:43:50.603Z,27.23
2022-10-17T06:45:11.644Z,26.20
2022-10-17T06:46:34.106Z,26.67
2022-10-17T06:47:39.442Z,26.80
2022-10-17T06:48:59.143Z,25.92
2022-10-17T06:50:19.224Z,26.15
2022-10-17T06:51:37.102Z,26.35
2022-10-17T06:52:42.458Z,26.25
2022-10-17T06:54:13.750Z,26.02
2022-10-17T06:55:23.614Z,26.05
2022-10-17T06:56:53.027Z,25.58
2022-10-17T06:58:13.979Z,26.58
2022-10-17T06:59:28.329Z,26.30
2022-10-17T07:00:37.958Z,26.20
2022-10-17T07:01:43.089Z,26.25
2022-10-17T07:02:48.466Z,26.02
2022-10-17T07:03:50.757Z,27.13
2022-10-17T07:04:53.079Z,25.80
2022-10-17T07:05:55.884Z,26.35
2022-10-17T07:08:22.724Z,24.85
2022-10-17T07:09:25.187Z,24.38
2022-10-17T07:10:27.524Z,25.77
2022-10-17T07:11:29.833Z,26.23
2022-10-17T07:12:33.290Z,24.70
2022-10-17T07:13:39.105Z,25.23
2022-10-17T07:14:42.543Z,25.38
2022-10-17T07:15:45.831Z,25.08
2022-10-17T07:16:48.630Z,24.70
2022-10-17T07:17:54.288Z,24.92
2022-10-17T07:18:57.078Z,25.35
2022-10-17T07:19:59.366Z,24.45
2022-10-17T07:21:01.926Z,24.70
2022-10-17T07:22:04.665Z,24.48
2022-10-17T07:23:07.982Z,24.90
2022-10-17T07:24:11.437Z,24.48
2022-10-17T07:25:16.217Z,24.70
2022-10-17T07:26:26.220Z,24.42
2022-10-17T07:27:28.603Z,24.95
2022-10-17T07:28:31.217Z,24.30
2022-10-17T07:29:37.780Z,24.75
2022-10-17T07:31:08.024Z,23.20
2022-10-17T07:32:11.734Z,24.02
2022-10-17T07:33:14.061Z,23.67
2022-10-17T07:34:16.466Z,24.20
2022-10-17T07:35:21.609Z,23.35
2022-10-17T07:36:23.906Z,24.38
2022-10-17T07:37:26.165Z,23.00
2022-10-17T07:38:31.639Z,23.48
2022-10-17T07:39:36.203Z,23.73
2022-10-17T07:40:38.803Z,24.27
2022-10-17T07:41:41.027Z,23.38
2022-10-17T07:42:43.555Z,23.85
2022-10-17T07:43:46.781Z,23.98
2022-10-17T07:44:51.332Z,23.23
2022-10-17T07:45:55.634Z,22.83
2022-10-17T07:46:57.868Z,22.67
2022-10-17T07:48:00.120Z,23.13
2022-10-17T07:49:02.402Z,23.08
2022-10-17T07:50:05.884Z,23.80
2022-10-17T07:51:09.808Z,22.63
2022-10-17T07:52:13.873Z,22.90
2022-10-17T07:53:16.608Z,22.95
2022-10-17T07:54:18.816Z,21.98
2022-10-17T07:55:21.060Z,22.70
2022-10-17T07:56:24.838Z,22.02
2022-10-17T07:57:27.121Z,21.45
2022-10-17T07:58:31.358Z,22.13
2022-10-17T07:59:35.097Z,21.13
2022-10-17T08:00:37.738Z,22.15
2022-10-17T08:01:40.061Z,21.67
2022-10-17T08:02:42.784Z,22.13
2022-10-17T08:03:46.383Z,22.45
2022-10-17T08:04:48.614Z,21.42
2022-10-17T08:05:50.776Z,21.08
2022-10-17T08:07:05.395Z,21.55
2022-10-17T08:08:14.199Z,21.55
2022-10-17T08:09:16.449Z,22.25
2022-10-17T08:10:18.813Z,21.30
2022-10-17T08:11:23.246Z,21.23
2022-10-17T08:12:26.254Z,20.65
2022-10-17T08:13:28.476Z,22.58
2022-10-17T08:14:30.736Z,21.13
2022-10-17T08:15:32.967Z,21.00
2022-10-17T08:16:35.242Z,20.98
2022-10-17T08:17:39.055Z,21.23
2022-10-17T08:18:43.397Z,20.27
2022-10-17T08:19:45.613Z,21.08
2022-10-17T08:20:48.796Z,21.25
2022-10-17T08:21:52.386Z,21.63
2022-10-17T08:22:55.539Z,20.65
2022-10-17T08:23:57.908Z,21.52
2022-10-17T08:25:00.121Z,21.42
2022-10-17T08:26:05.732Z,22.00
2022-10-17T08:27:11.578Z,21.00
2022-10-17T08:28:13.918Z,20.67
2022-10-17T08:29:17.090Z,21.25
2022-10-17T08:30:19.311Z,20.50
2022-10-17T08:31:22.088Z,20.80
2022-10-17T08:32:26.652Z,20.73
2022-10-17T08:33:28.962Z,20.90
2022-10-17T08:34:31.151Z,20.88
2022-10-17T08:35:35.647Z,21.30
2022-10-17T08:36:37.901Z,21.40
2022-10-17T08:37:40.218Z,21.17
2022-10-17T08:38:43.800Z,19.80
2022-10-17T08:39:46.108Z,20.73
2022-10-17T08:40:49.633Z,19.90
2022-10-17T08:41:57.577Z,20.30
2022-10-17T08:43:37.017Z,20.30
2022-10-17T08:44:45.347Z,20.55
2022-10-17T08:46:05.158Z,20.05
2022-10-17T08:47:13.696Z,19.27
2022-10-17T08:48:18.763Z,20.13
2022-10-17T08:49:47.898Z,20.15
2022-10-17T08:51:16.755Z,20.88
2022-10-17T08:52:26.824Z,19.08
2022-10-17T08:53:39.649Z,19.38
2022-10-17T08:54:46.286Z,19.05
2022-10-17T08:55:53.279Z,19.08
2022-10-17T08:56:55.633Z,19.80
2022-10-17T08:58:08.453Z,20.60
2022-10-17T08:59:18.076Z,19.90
2022-10-17T09:00:21.879Z,20.10
2022-10-17T09:01:39.198Z,20.30
2022-10-17T09:03:16.760Z,20.48
2022-10-17T09:04:18.996Z,19.20
2022-10-17T09:05:27.487Z,20.15
2022-10-17T09:06:40.978Z,20.13
2022-10-17T09:08:02.018Z,19.80
2022-10-17T09:09:40.387Z,19.80
2022-10-17T09:11:12.371Z,20.50
2022-10-17T09:12:29.791Z,19.40
2022-10-17T09:13:47.400Z,19.48
2022-10-17T09:15:14.127Z,19.65
2022-10-17T09:16:35.101Z,20.77
2022-10-17T09:17:52.282Z,19.85
2022-10-17T09:19:07.015Z,19.45
2022-10-17T09:20:18.321Z,18.98
2022-10-17T09:21:42.263Z,18.75
2022-10-17T09:23:02.486Z,20.60
2022-10-17T09:24:15.772Z,19.65
2022-10-17T09:25:20.980Z,20.10
2022-10-17T09:26:26.470Z,19.45
2022-10-17T09:28:10.493Z,19.25
2022-10-17T09:29:36.084Z,21.00
2022-10-17T09:31:08.247Z,19.80
2022-10-17T09:32:18.315Z,19.27
2022-10-17T09:33:42.219Z,20.00
2022-10-17T09:34:48.487Z,20.50
2022-10-17T09:35:51.957Z,20.30
2022-10-17T09:36:54.198Z,19.85
2022-10-17T09:38:01.205Z,20.45
2022-10-17T09:39:23.025Z,19.58
2022-10-17T09:40:31.565Z,19.00
2022-10-17T09:42:01.037Z,20.67
2022-10-17T09:43:07.003Z,19.38
2022-10-17T09:44:14.871Z,20.70
2022-10-17T09:45:19.629Z,20.65
2022-10-17T09:46:38.327Z,20.65
2022-10-17T09:48:10.302Z,20.83
2022-10-17T09:49:22.111Z,19.85
2022-10-17T09:50:30.499Z,20.73
2022-10-17T09:51:33.154Z,20.20
2022-10-17T09:52:41.019Z,20.00
2022-10-17T09:53:47.633Z,21.85
2022-10-17T09:54:57.510Z,21.00
2022-10-17T09:56:03.559Z,19.95
2022-10-17T09:57:09.871Z,20.65
2022-10-17T09:58:12.394Z,20.67
2022-10-17T09:59:29.697Z,20.52
2022-10-17T10:00:33.331Z,20.02
2022-10-17T10:01:35.593Z,19.17
2022-10-17T10:02:40.962Z,19.20
2022-10-17T10:03:43.144Z,20.48
2022-10-17T10:05:08.761Z,20.98
2022-10-17T10:06:17.786Z,21.30
2022-10-17T10:07:24.498Z,21.10
2022-10-17T10:08:36.201Z,20.05
2022-10-17T10:09:40.221Z,21.08
2022-10-17T10:10:44.874Z,21.23
2022-10-17T10:11:50.561Z,20.73
2022-10-17T10:13:29.321Z,20.50
2022-10-17T10:14:36.988Z,20.08
2022-10-17T10:15:44.678Z,20.55
2022-10-17T10:16:52.213Z,19.73
2022-10-17T10:17:54.451Z,20.38
2022-10-17T10:18:56.997Z,19.27
2022-10-17T10:19:59.383Z,19.50
2022-10-17T10:21:23.033Z,20.50
2022-10-17T10:22:25.598Z,19.98
2022-10-17T10:23:27.842Z,18.90
2022-10-17T10:24:31.306Z,20.23
2022-10-17T10:25:37.074Z,19.52
2022-10-17T10:26:50.665Z,19.95
2022-10-17T10:27:52.951Z,19.90
2022-10-17T10:29:05.554Z,19.88
2022-10-17T10:30:18.248Z,20.08
2022-10-17T10:31:28.166Z,19.85
2022-10-17T10:32:36.823Z,20.63
2022-10-17T10:33:47.030Z,19.77
2022-10-17T10:35:00.947Z,18.77
2022-10-17T10:36:08.198Z,19.08
2022-10-17T10:37:21.399Z,20.20
2022-10-17T10:38:24.322Z,19.92
2022-10-17T10:39:50.718Z,19.65
2022-10-17T10:41:01.578Z,18.63
2022-10-17T10:42:07.701Z,18.98
2022-10-17T10:43:23.285Z,18.90
2022-10-17T10:44:29.429Z,18.55
2022-10-17T10:45:52.601Z,18.55
2022-10-17T10:47:14.672Z,18.83
2022-10-17T10:48:37.303Z,18.48
2022-10-17T10:49:39.731Z,19.08
2022-10-17T10:50:57.479Z,18.83
2022-10-17T10:52:02.692Z,18.75
2022-10-17T10:53:32.895Z,18.88
2022-10-17T10:54:41.614Z,18.88
2022-10-17T10:56:13.132Z,18.98
2022-10-17T10:57:21.623Z,18.33
2022-10-17T10:58:23.769Z,18.05
2022-10-17T10:59:31.805Z,18.27
2022-10-17T11:00:37.530Z,18.63
2022-10-17T11:01:52.726Z,18.83
2022-10-17T11:03:11.929Z,19.73
2022-10-17T11:04:28.541Z,18.08
2022-10-17T11:05:41.243Z,18.80
2022-10-17T11:06:46.203Z,18.50
2022-10-17T11:08:07.634Z,18.48
2022-10-17T11:09:39.307Z,18.30
2022-10-17T11:10:59.350Z,17.63
2022-10-17T11:12:11.872Z,18.02
2022-10-17T11:13:28.991Z,17.50
2022-10-17T11:15:01.132Z,18.30
2022-10-17T11:16:18.678Z,18.45
2022-10-17T11:17:37.299Z,17.92
2022-10-17T11:19:07.325Z,17.60
2022-10-17T11:20:09.494Z,17.92
2022-10-17T11:21:34.465Z,18.17
2022-10-17T11:22:43.047Z,17.80
2022-10-17T11:23:56.393Z,17.40
2022-10-17T11:25:03.951Z,17.50
2022-10-17T11:26:11.690Z,16.77
2022-10-17T11:27:13.957Z,17.35
2022-10-17T11:28:18.883Z,17.33
2022-10-17T11:29:25.468Z,17.10
2022-10-17T11:30:34.313Z,17.20
2022-10-17T11:31:41.411Z,16.73
2022-10-17T11:32:53.866Z,17.75
2022-10-17T11:34:01.052Z,17.08
2022-10-17T11:35:17.366Z,16.92
2022-10-17T11:36:25.895Z,16.80
2022-10-17T11:37:33.113Z,17.17
2022-10-17T11:38:57.345Z,17.33
2022-10-17T11:40:24.961Z,17.60
2022-10-17T11:41:35.005Z,16.33
2022-10-17T11:43:03.245Z,16.95
2022-10-17T11:44:12.088Z,16.27
2022-10-17T11:45:19.195Z,17.17
2022-10-17T11:46:24.693Z,16.95
2022-10-17T11:47:59.204Z,16.23
2022-10-17T11:52:55.878Z,16.92
2022-10-17T11:54:15.890Z,17.15
2022-10-17T11:55:22.836Z,16.90
2022-10-17T11:57:10.729Z,16.63
2022-10-17T11:58:35.882Z,17.17
2022-10-17T12:00:06.060Z,16.55
2022-10-17T12:01:10.466Z,17.02
2022-10-17T12:02:43.247Z,17.77
2022-10-17T12:04:02.904Z,16.52
2022-10-17T12:05:22.718Z,16.45
2022-10-17T12:06:33.903Z,16.75
2022-10-17T12:08:12.687Z,16.80
2022-10-17T12:09:34.598Z,16.25
2022-10-17T12:10:42.830Z,15.95
2022-10-17T12:11:56.623Z,16.20
2022-10-17T12:13:46.162Z,16.92
2022-10-17T12:14:48.452Z,15.80
2022-10-17T12:15:50.700Z,15.98
2022-10-17T12:16:53.607Z,16.63
2022-10-17T12:18:04.203Z,16.73
2022-10-17T12:19:25.536Z,16.27
2022-10-17T12:20:38.540Z,15.88
2022-10-17T12:21:59.117Z,15.27
2022-10-17T12:23:10.538Z,15.88
2022-10-17T12:24:45.769Z,15.85
2022-10-17T12:26:01.159Z,15.27
2022-10-17T12:27:48.390Z,14.73
2022-10-17T12:28:50.766Z,14.90
2022-10-17T12:30:03.065Z,15.13
2022-10-17T12:31:33.697Z,14.48
2022-10-17T12:32:53.326Z,14.65
2022-10-17T12:34:02.567Z,15.07
2022-10-17T12:35:05.357Z,15.18
2022-10-17T12:36:16.696Z,14.75
2022-10-17T12:37:57.346Z,15.25
2022-10-17T12:39:02.085Z,15.00
2022-10-17T12:40:04.650Z,14.65
2022-10-17T12:41:06.979Z,14.82
2022-10-17T12:42:30.318Z,15.00
2022-10-17T12:43:45.776Z,14.38
2022-10-17T12:44:51.148Z,13.98
2022-10-17T12:45:57.712Z,14.38
2022-10-17T12:47:06.208Z,14.65
2022-10-17T12:48:10.389Z,14.73
2022-10-17T12:49:37.411Z,13.60
2022-10-17T12:52:36.753Z,13.95
2022-10-17T12:54:00.010Z,13.98
2022-10-17T12:55:14.210Z,13.45
2022-10-17T12:56:22.445Z,13.50
2022-10-17T12:57:33.295Z,13.20
2022-10-17T12:58:36.185Z,13.02
2022-10-17T12:59:43.623Z,14.10
2022-10-17T13:01:30.076Z,14.05
2022-10-17T13:02:36.329Z,13.63
2022-10-17T13:03:44.705Z,13.82
2022-10-17T13:04:49.098Z,13.40
2022-10-17T13:05:54.813Z,13.45
2022-10-17T13:06:59.339Z,13.50
2022-10-17T13:08:04.935Z,13.98
2022-10-17T13:09:27.327Z,13.52
2022-10-17T13:10:33.737Z,13.23
2022-10-17T13:11:37.958Z,13.43
2022-10-17T13:12:41.342Z,13.13
2022-10-17T13:13:48.163Z,13.23
2022-10-17T13:14:55.271Z,14.13
2022-10-17T13:15:57.517Z,14.50
2022-10-17T13:17:04.237Z,13.63
2022-10-17T13:18:06.525Z,14.45
2022-10-17T13:19:17.807Z,14.15
2022-10-17T13:20:27.499Z,13.43
2022-10-17T13:21:32.739Z,13.93
2022-10-17T13:22:35.049Z,13.65
2022-10-17T13:23:38.282Z,14.68
2022-10-17T13:24:41.219Z,14.73
2022-10-17T13:25:43.397Z,14.18
2022-10-17T13:26:46.554Z,14.57
2022-10-17T13:27:50.163Z,14.30
2022-10-17T13:29:12.627Z,14.30
2022-10-17T13:30:32.493Z,14.55
2022-10-17T13:31:40.259Z,14.57
2022-10-17T13:32:45.184Z,13.95
2022-10-17T13:33:47.474Z,14.05
2022-10-17T13:35:17.563Z,14.35
2022-10-17T13:36:19.956Z,12.60
2022-10-17T13:37:22.321Z,13.32
2022-10-17T13:38:28.825Z,13.85
2022-10-17T13:39:58.329Z,13.35
2022-10-17T13:41:06.081Z,13.85
2022-10-17T13:42:37.370Z,13.68
2022-10-17T13:43:40.573Z,14.10
2022-10-17T13:44:43.615Z,13.73
2022-10-17T13:45:51.979Z,13.98
2022-10-17T13:46:54.624Z,13.82
2022-10-17T13:48:00.057Z,13.60
2022-10-17T13:49:28.884Z,13.77
2022-10-17T13:50:44.496Z,13.85
2022-10-17T13:51:52.904Z,14.15
2022-10-17T13:53:07.508Z,14.38
2022-10-17T13:54:37.144Z,14.32
2022-10-17T13:56:23.214Z,14.07
2022-10-17T13:57:31.370Z,14.20
2022-10-17T13:58:48.607Z,14.32
2022-10-17T13:59:58.662Z,14.18
2022-10-17T14:01:02.348Z,14.93
2022-10-17T14:02:06.057Z,13.68
2022-10-17T14:03:08.421Z,13.90
2022-10-17T14:04:19.447Z,14.50
2022-10-17T14:05:23.811Z,14.43
2022-10-17T14:06:30.935Z,13.52
2022-10-17T14:08:09.233Z,14.43
2022-10-17T14:09:16.618Z,14.88
2022-10-17T14:10:28.466Z,14.93
2022-10-17T14:11:37.804Z,14.25
2022-10-17T14:12:43.112Z,14.15
2022-10-17T14:13:50.225Z,14.23
2022-10-17T14:15:11.014Z,14.07
2022-10-17T14:16:13.672Z,14.05
2022-10-17T14:17:28.931Z,14.55
2022-10-17T14:18:36.348Z,15.55
2022-10-17T14:19:39.268Z,14.05
2022-10-17T14:22:18.781Z,14.52
2022-10-17T14:23:30.216Z,13.55
2022-10-17T14:24:35.836Z,14.40
2022-10-17T14:25:40.693Z,14.65
2022-10-17T14:26:59.374Z,14.70
2022-10-17T14:28:08.012Z,14.68
2022-10-17T14:29:44.346Z,15.00
2022-10-17T14:30:56.897Z,14.45
2022-10-17T14:32:13.817Z,14.95
2022-10-17T14:33:31.981Z,14.30
2022-10-17T14:34:36.852Z,14.82
2022-10-17T14:35:42.105Z,15.23
2022-10-17T14:36:44.665Z,14.77
2022-10-17T14:37:50.790Z,15.38
2022-10-17T14:38:53.197Z,14.82
2022-10-17T14:39:55.430Z,14.98
2022-10-17T14:42:40.178Z,14.68
2022-10-17T14:43:42.549Z,14.75
2022-10-17T14:44:50.677Z,14.45
2022-10-17T14:45:52.962Z,15.25
2022-10-17T14:47:00.279Z,15.13
2022-10-17T14:48:16.791Z,15.20
2022-10-17T14:49:35.914Z,14.88
2022-10-17T14:50:38.437Z,14.90
2022-10-17T14:51:50.649Z,15.60
2022-10-17T14:53:07.107Z,15.20
2022-10-17T14:54:26.050Z,14.43
2022-10-17T14:55:30.844Z,15.13
2022-10-17T14:56:43.292Z,15.95
2022-10-17T14:57:46.448Z,15.55
2022-10-17T14:58:48.686Z,15.13
2022-10-17T14:59:55.341Z,15.40
2022-10-17T15:01:02.123Z,14.93
2022-10-17T15:02:04.319Z,15.32
2022-10-17T15:03:06.653Z,15.18
2022-10-17T15:04:11.034Z,14.70
2022-10-17T15:05:14.744Z,14.98
2022-10-17T15:06:35.450Z,15.20
2022-10-17T15:07:37.707Z,15.70
2022-10-17T15:08:39.958Z,15.50
2022-10-17T15:09:43.681Z,15.23
2022-10-17T15:10:47.560Z,16.15